Time;durP1;ratioP1;P1;durP2;ratioP2;P2;SDS_P1;SDS_P2;PMS_P1;PMS_P2;Temp;Humidity;BMP_temperature;BMP_pressure;BME280_temperature;BME280_humidity;BME280_pressure;Samples;Min_cycle;Max_cycle;Signal;HPM_P1;HPM_P2
2021/11/28 00:01:58;;;;;;;;;;;15.70;38.50;;;;;;8386868;27;20012;-50
2021/11/28 00:06:02;;;;;;;;;;;15.70;38.50;;;;;;8358476;28;20282;-47
2021/11/28 00:10:55;;;;;;;;;;;15.70;38.50;;;;;;8358987;28;19925;-47
2021/11/28 00:14:30;;;;;;;;;;;15.70;38.50;;;;;;8359072;28;20329;-48
2021/11/28 00:18:31;;;;;;;;;;;15.70;38.40;;;;;;8358151;28;19921;-48
2021/11/28 00:22:31;;;;;;;;;;;15.70;38.40;;;;;;8358485;28;19924;-47
2021/11/28 00:26:32;;;;;;;;;;;15.70;38.40;;;;;;8358361;28;20370;-47
2021/11/28 00:30:33;;;;;;;;;;;15.70;38.40;;;;;;8357642;28;19917;-47
2021/11/28 00:34:33;;;;;;;;;;;15.70;38.30;;;;;;8358627;28;19936;-48
2021/11/28 00:38:34;;;;;;;;;;;15.70;38.30;;;;;;8358004;28;19925;-47
2021/11/28 00:42:34;;;;;;;;;;;15.70;38.30;;;;;;8358060;28;19921;-48
2021/11/28 00:46:35;;;;;;;;;;;15.70;38.30;;;;;;8357635;28;20373;-47
2021/11/28 00:50:46;;;;;;;;;;;15.70;38.40;;;;;;8357565;28;19917;-48
2021/11/28 00:54:47;;;;;;;;;;;15.70;38.40;;;;;;8357390;28;19913;-47
2021/11/28 00:58:47;;;;;;;;;;;15.70;38.40;;;;;;8364892;28;20140;-47
2021/11/28 01:02:48;;;;;;;;;;;15.70;38.40;;;;;;8389696;28;19917;-48
2021/11/28 01:06:48;;;;;;;;;;;15.70;38.40;;;;;;8389886;28;20366;-46
2021/11/28 01:10:49;;;;;;;;;;;15.70;38.40;;;;;;8381712;28;19953;-47
2021/11/28 01:14:50;;;;;;;;;;;15.60;38.40;;;;;;8367786;28;20376;-48
2021/11/28 01:18:50;;;;;;;;;;;15.60;38.40;;;;;;8366354;28;19929;-47
2021/11/28 01:22:51;;;;;;;;;;;15.60;38.40;;;;;;8367617;28;19959;-47
2021/11/28 01:26:52;;;;;;;;;;;15.60;38.40;;;;;;8367267;28;20006;-47
2021/11/28 01:30:52;;;;;;;;;;;15.60;38.40;;;;;;8367539;28;19924;-47
2021/11/28 01:34:52;;;;;;;;;;;15.60;38.50;;;;;;8367677;28;19944;-47
2021/11/28 01:38:53;;;;;;;;;;;15.60;38.40;;;;;;8366622;28;20043;-47
2021/11/28 01:42:58;;;;;;;;;;;15.60;38.40;;;;;;8366947;28;19917;-51
2021/11/28 01:46:59;;;;;;;;;;;15.60;38.50;;;;;;8366933;28;20332;-48
2021/11/28 01:51:02;;;;;;;;;;;15.60;38.50;;;;;;8366361;28;20297;-47
2021/11/28 01:55:05;;;;;;;;;;;15.60;38.50;;;;;;8367080;28;19913;-47
2021/11/28 01:59:06;;;;;;;;;;;15.60;38.40;;;;;;8366404;28;19929;-47
2021/11/28 02:03:07;;;;;;;;;;;15.60;38.40;;;;;;8365878;28;19917;-48
2021/11/28 02:07:08;;;;;;;;;;;15.60;38.40;;;;;;8366114;28;20401;-47
2021/11/28 02:11:09;;;;;;;;;;;15.60;38.40;;;;;;8365593;28;20304;-47
2021/11/28 02:15:10;;;;;;;;;;;15.60;38.30;;;;;;8365777;28;20370;-47
2021/11/28 02:19:10;;;;;;;;;;;15.60;38.30;;;;;;8365921;28;19936;-47
2021/11/28 02:23:11;;;;;;;;;;;15.60;38.40;;;;;;8364789;28;19917;-47
2021/11/28 02:27:11;;;;;;;;;;;15.60;38.40;;;;;;8365412;28;19923;-47
2021/11/28 02:31:12;;;;;;;;;;;15.60;38.40;;;;;;8365490;28;20016;-47
2021/11/28 02:35:14;;;;;;;;;;;15.60;38.40;;;;;;8365789;28;19996;-48
2021/11/28 02:39:15;;;;;;;;;;;15.60;38.40;;;;;;8364738;28;19925;-48
2021/11/28 02:43:16;;;;;;;;;;;15.60;38.40;;;;;;8365266;28;19920;-47
2021/11/28 02:47:16;;;;;;;;;;;15.60;38.40;;;;;;8364925;28;19924;-47
2021/11/28 02:51:17;;;;;;;;;;;15.60;38.40;;;;;;8364470;28;19921;-47
2021/11/28 02:55:17;;;;;;;;;;;15.60;38.40;;;;;;8364744;28;19912;-47
2021/11/28 02:59:18;;;;;;;;;;;15.60;38.40;;;;;;8364647;28;20297;-47
2021/11/28 03:03:18;;;;;;;;;;;15.50;38.40;;;;;;8363992;28;20023;-46
2021/11/28 03:07:20;;;;;;;;;;;15.60;38.40;;;;;;8364645;28;19992;-49
2021/11/28 03:11:20;;;;;;;;;;;15.50;38.30;;;;;;8364469;28;20290;-47
2021/11/28 03:15:22;;;;;;;;;;;15.50;38.40;;;;;;8363939;28;19913;-48
2021/11/28 03:19:22;;;;;;;;;;;15.50;38.40;;;;;;8364205;28;19925;-48
2021/11/28 03:23:24;;;;;;;;;;;15.60;38.50;;;;;;8363881;28;19916;-48
2021/11/28 03:27:26;;;;;;;;;;;15.50;38.40;;;;;;8363527;28;20465;-48
2021/11/28 03:31:28;;;;;;;;;;;15.50;38.40;;;;;;8363594;28;19996;-47
2021/11/28 03:35:28;;;;;;;;;;;15.50;38.40;;;;;;8363485;28;20285;-47
2021/11/28 03:39:29;;;;;;;;;;;15.60;38.50;;;;;;8362880;28;19924;-46
2021/11/28 03:43:30;;;;;;;;;;;15.50;38.50;;;;;;8363580;28;19963;-47
2021/11/28 03:47:30;;;;;;;;;;;15.50;38.40;;;;;;8363280;28;19916;-48
2021/11/28 03:51:31;;;;;;;;;;;15.60;38.40;;;;;;8362693;28;19917;-47
2021/11/28 03:55:31;;;;;;;;;;;15.60;38.50;;;;;;8363436;28;19912;-47
2021/11/28 03:59:32;;;;;;;;;;;15.50;38.30;;;;;;8362981;28;20007;-48
2021/11/28 04:03:33;;;;;;;;;;;15.50;38.40;;;;;;8362522;28;19916;-47
2021/11/28 04:07:33;;;;;;;;;;;15.50;38.40;;;;;;8362987;28;19917;-47
2021/11/28 04:11:34;;;;;;;;;;;15.50;38.40;;;;;;8363032;28;20378;-47
2021/11/28 04:15:34;;;;;;;;;;;15.60;38.40;;;;;;8362561;28;19913;-47
2021/11/28 04:19:35;;;;;;;;;;;15.50;38.40;;;;;;8362823;28;20371;-46
2021/11/28 04:23:35;;;;;;;;;;;15.60;38.40;;;;;;8362691;28;20389;-47
2021/11/28 04:27:36;;;;;;;;;;;15.60;38.40;;;;;;8362269;28;20304;-47
2021/11/28 04:31:36;;;;;;;;;;;15.50;38.40;;;;;;8362716;28;19917;-47
2021/11/28 04:35:37;;;;;;;;;;;15.50;38.40;;;;;;8362595;28;19960;-47
2021/11/28 04:39:37;;;;;;;;;;;15.60;38.50;;;;;;8361725;28;20337;-46
2021/11/28 04:43:37;;;;;;;;;;;15.50;38.40;;;;;;8362150;28;20340;-47
2021/11/28 04:47:38;;;;;;;;;;;15.50;38.40;;;;;;8366232;28;19962;-47
2021/11/28 04:51:39;;;;;;;;;;;15.50;38.40;;;;;;8343680;28;19913;-46
2021/11/28 04:55:39;;;;;;;;;;;15.50;38.40;;;;;;8368533;28;20428;-46
2021/11/28 04:59:40;;;;;;;;;;;15.50;38.40;;;;;;8368073;28;19960;-46
2021/11/28 05:03:40;;;;;;;;;;;15.50;38.30;;;;;;8367219;28;19928;-48
2021/11/28 05:07:41;;;;;;;;;;;15.50;38.30;;;;;;8367527;28;19967;-47
2021/11/28 05:11:42;;;;;;;;;;;15.50;38.40;;;;;;8367233;28;19912;-46
2021/11/28 05:15:42;;;;;;;;;;;15.50;38.40;;;;;;8367890;28;19920;-47
2021/11/28 05:19:43;;;;;;;;;;;15.50;38.40;;;;;;8367364;28;20298;-46
2021/11/28 05:23:43;;;;;;;;;;;15.50;38.40;;;;;;8366837;28;19923;-47
2021/11/28 05:27:46;;;;;;;;;;;15.50;38.40;;;;;;8367330;28;19924;-47
2021/11/28 05:31:46;;;;;;;;;;;15.50;38.40;;;;;;8367355;28;19912;-46
2021/11/28 05:35:47;;;;;;;;;;;15.50;38.40;;;;;;8366199;28;19962;-46
2021/11/28 05:39:47;;;;;;;;;;;15.50;38.40;;;;;;8367270;28;19925;-47
2021/11/28 05:43:49;;;;;;;;;;;15.50;38.40;;;;;;8366822;28;19917;-47
2021/11/28 05:47:50;;;;;;;;;;;15.50;38.40;;;;;;8366372;28;19932;-46
2021/11/28 05:51:51;;;;;;;;;;;15.50;38.40;;;;;;8367032;28;19913;-47
2021/11/28 05:55:52;;;;;;;;;;;15.50;38.40;;;;;;8366840;28;19913;-47
2021/11/28 05:59:52;;;;;;;;;;;15.50;38.40;;;;;;8365925;28;19924;-47
2021/11/28 06:03:53;;;;;;;;;;;15.50;38.40;;;;;;8366402;28;20373;-49
2021/11/28 06:07:53;;;;;;;;;;;15.50;38.40;;;;;;8366238;28;19917;-48
2021/11/28 06:11:54;;;;;;;;;;;15.50;38.40;;;;;;8365799;28;20277;-48
2021/11/28 06:15:54;;;;;;;;;;;15.50;38.40;;;;;;8366365;28;19996;-48
2021/11/28 06:19:54;;;;;;;;;;;15.50;38.40;;;;;;8365784;28;19925;-47
2021/11/28 06:23:55;;;;;;;;;;;15.50;38.40;;;;;;8365271;28;19921;-47
2021/11/28 06:27:55;;;;;;;;;;;15.50;38.40;;;;;;8365533;28;19936;-48
2021/11/28 06:31:56;;;;;;;;;;;15.50;38.40;;;;;;8365786;28;20004;-49
2021/11/28 06:35:57;;;;;;;;;;;15.50;38.30;;;;;;8364952;28;20275;-48
2021/11/28 06:39:57;;;;;;;;;;;15.50;38.40;;;;;;8365356;28;20058;-47
2021/11/28 06:43:58;;;;;;;;;;;15.50;38.40;;;;;;8365024;28;19917;-48
2021/11/28 06:47:59;;;;;;;;;;;15.50;38.40;;;;;;8364605;28;19924;-47
2021/11/28 06:52:00;;;;;;;;;;;15.50;38.40;;;;;;8365330;28;19975;-48
2021/11/28 06:56:04;;;;;;;;;;;15.50;38.40;;;;;;8364908;28;19970;-48
2021/11/28 07:00:05;;;;;;;;;;;15.50;38.40;;;;;;8363820;28;19978;-49
2021/11/28 07:04:06;;;;;;;;;;;15.50;38.40;;;;;;8364648;28;19946;-47
2021/11/28 07:08:06;;;;;;;;;;;15.50;38.40;;;;;;8363735;28;19919;-47
2021/11/28 07:12:07;;;;;;;;;;;15.50;38.40;;;;;;8363993;28;19963;-48
2021/11/28 07:16:07;;;;;;;;;;;15.50;38.40;;;;;;8363942;28;19925;-47
2021/11/28 07:20:08;;;;;;;;;;;15.50;38.40;;;;;;8363956;28;19978;-47
2021/11/28 07:24:09;;;;;;;;;;;15.50;38.40;;;;;;8363463;28;19917;-49
2021/11/28 07:28:09;;;;;;;;;;;15.50;38.50;;;;;;8363997;28;19999;-48
2021/11/28 07:32:09;;;;;;;;;;;15.50;38.40;;;;;;8363884;28;19917;-51
2021/11/28 07:36:10;;;;;;;;;;;15.50;38.40;;;;;;8363022;28;19917;-48
2021/11/28 07:40:11;;;;;;;;;;;15.50;38.50;;;;;;8363490;28;19976;-47
2021/11/28 07:44:11;;;;;;;;;;;15.50;38.40;;;;;;8363504;28;19921;-47
2021/11/28 07:48:12;;;;;;;;;;;15.50;38.50;;;;;;8362934;28;19952;-47
2021/11/28 07:52:12;;;;;;;;;;;15.50;39.00;;;;;;8363671;28;20008;-48
2021/11/28 07:56:13;;;;;;;;;;;15.50;38.50;;;;;;8363266;28;20008;-49
2021/11/28 08:00:14;;;;;;;;;;;15.50;38.50;;;;;;8362339;28;19931;-47
2021/11/28 08:04:14;;;;;;;;;;;15.50;38.40;;;;;;8351379;28;19917;-48
2021/11/28 08:08:16;;;;;;;;;;;15.50;38.40;;;;;;8335019;28;19917;-48
2021/11/28 08:12:16;;;;;;;;;;;15.50;38.50;;;;;;8362891;28;19928;-47
2021/11/28 08:16:17;;;;;;;;;;;15.50;38.50;;;;;;8362946;28;19921;-46
2021/11/28 08:20:18;;;;;;;;;;;15.50;38.50;;;;;;8362661;28;19978;-48
2021/11/28 08:24:19;;;;;;;;;;;15.50;39.00;;;;;;8367895;28;20050;-48
2021/11/28 08:28:19;;;;;;;;;;;15.50;38.50;;;;;;8368549;28;20389;-47
2021/11/28 08:32:20;;;;;;;;;;;15.50;38.50;;;;;;8368564;28;20400;-48
2021/11/28 08:36:20;;;;;;;;;;;15.50;38.50;;;;;;8367990;28;19925;-47
2021/11/28 08:40:21;;;;;;;;;;;15.50;38.50;;;;;;8368318;28;19928;-48
2021/11/28 08:44:21;;;;;;;;;;;15.50;38.40;;;;;;8368209;28;20392;-48
2021/11/28 08:48:22;;;;;;;;;;;15.50;38.50;;;;;;8367699;28;19952;-47
2021/11/28 08:52:22;;;;;;;;;;;15.50;38.50;;;;;;8368343;28;19913;-48
2021/11/28 08:56:23;;;;;;;;;;;15.50;38.50;;;;;;8367887;28;19928;-47
2021/11/28 09:00:24;;;;;;;;;;;15.50;38.50;;;;;;8367080;28;19925;-46
2021/11/28 09:04:24;;;;;;;;;;;15.50;38.50;;;;;;8368426;28;19959;-47
2021/11/28 09:08:25;;;;;;;;;;;15.50;38.50;;;;;;8367845;28;20010;-47
2021/11/28 09:12:26;;;;;;;;;;;15.50;38.50;;;;;;8367640;28;20297;-47
2021/11/28 09:16:26;;;;;;;;;;;15.50;38.50;;;;;;8367788;28;20373;-47
2021/11/28 09:20:28;;;;;;;;;;;15.50;38.50;;;;;;8367593;28;20002;-46
2021/11/28 09:24:37;;;;;;;;;;;15.50;38.50;;;;;;8367147;28;19917;-48
2021/11/28 09:28:38;;;;;;;;;;;15.50;38.50;;;;;;8367527;28;20274;-47
2021/11/28 09:32:38;;;;;;;;;;;15.50;38.50;;;;;;8367147;28;20000;-49
2021/11/28 09:36:39;;;;;;;;;;;15.50;38.50;;;;;;8367298;28;19921;-47
2021/11/28 09:40:42;;;;;;;;;;;15.60;38.60;;;;;;8366719;28;19929;-46
2021/11/28 09:44:43;;;;;;;;;;;15.50;38.50;;;;;;8366607;28;19913;-47
2021/11/28 09:48:45;;;;;;;;;;;15.50;38.50;;;;;;8366762;28;20329;-48
2021/11/28 09:52:46;;;;;;;;;;;15.60;38.60;;;;;;8367220;28;19943;-47
2021/11/28 09:56:47;;;;;;;;;;;15.60;38.60;;;;;;8366436;28;19987;-48
2021/11/28 10:00:47;;;;;;;;;;;15.60;38.60;;;;;;8366296;28;20025;-48
2021/11/28 10:04:48;;;;;;;;;;;15.60;38.50;;;;;;8366252;28;20358;-49
2021/11/28 10:08:49;;;;;;;;;;;15.60;38.60;;;;;;8365587;28;20008;-48
2021/11/28 10:12:51;;;;;;;;;;;15.60;38.50;;;;;;8366169;28;20262;-48
2021/11/28 10:16:51;;;;;;;;;;;15.60;38.60;;;;;;8366196;28;19952;-48
2021/11/28 10:20:53;;;;;;;;;;;15.60;38.50;;;;;;8365412;28;19927;-49
2021/11/28 10:25:03;;;;;;;;;;;15.60;38.60;;;;;;8365773;28;20267;-48
2021/11/28 10:29:06;;;;;;;;;;;15.70;38.80;;;;;;8370122;28;19913;-49
2021/11/28 10:33:17;;;;;;;;;;;15.60;38.60;;;;;;8365230;28;19917;-47
2021/11/28 10:37:18;;;;;;;;;;;15.60;38.60;;;;;;8365426;28;19936;-48
2021/11/28 10:41:20;;;;;;;;;;;15.70;38.60;;;;;;8365329;28;19925;-50
2021/11/28 10:45:22;;;;;;;;;;;15.70;38.60;;;;;;8363898;28;19924;-49
2021/11/28 10:49:24;;;;;;;;;;;15.70;38.60;;;;;;8365124;28;19913;-48
2021/11/28 10:53:25;;;;;;;;;;;15.70;38.60;;;;;;8365226;28;19924;-48
2021/11/28 10:57:25;;;;;;;;;;;15.70;38.60;;;;;;8364319;28;20047;-47
2021/11/28 11:01:31;;;;;;;;;;;15.70;38.60;;;;;;8364416;28;19929;-48
2021/11/28 11:05:31;;;;;;;;;;;15.70;38.60;;;;;;8363570;28;19944;-47
2021/11/28 11:09:39;;;;;;;;;;;15.70;38.60;;;;;;8363771;28;19946;-48
2021/11/28 11:13:52;;;;;;;;;;;15.70;38.60;;;;;;8364523;28;20007;-51
2021/11/28 11:17:56;;;;;;;;;;;15.70;38.60;;;;;;8363571;28;20378;-52
2021/11/28 11:22:05;;;;;;;;;;;15.70;38.60;;;;;;8363911;28;20408;-48
2021/11/28 11:26:11;;;;;;;;;;;15.70;38.60;;;;;;8363693;28;20003;-48
2021/11/28 11:30:13;;;;;;;;;;;15.80;38.60;;;;;;8363291;28;19939;-50
2021/11/28 11:34:20;;;;;;;;;;;15.80;38.60;;;;;;8363517;28;19920;-51
2021/11/28 11:38:20;;;;;;;;;;;15.70;38.50;;;;;;8363534;28;19916;-51
2021/11/28 11:42:23;;;;;;;;;;;15.80;38.60;;;;;;8362993;28;19925;-51
2021/11/28 11:46:23;;;;;;;;;;;15.70;38.60;;;;;;8363442;28;20435;-48
2021/11/28 11:50:25;;;;;;;;;;;15.80;38.60;;;;;;8363093;28;19913;-50
2021/11/28 11:54:27;;;;;;;;;;;15.80;38.60;;;;;;8362290;28;19916;-49
2021/11/28 11:58:39;;;;;;;;;;;15.80;38.60;;;;;;8363141;28;19991;-47
2021/11/28 12:02:42;;;;;;;;;;;15.80;38.60;;;;;;8362524;28;20008;-47
2021/11/28 12:06:46;;;;;;;;;;;15.80;38.60;;;;;;8363329;28;20416;-47
2021/11/28 12:10:46;;;;;;;;;;;15.80;38.60;;;;;;8363017;28;19928;-49
2021/11/28 12:15:06;;;;;;;;;;;15.80;38.50;;;;;;8362380;28;19963;-47
2021/11/28 12:19:07;;;;;;;;;;;15.80;38.50;;;;;;8362508;28;20452;-48
2021/11/28 12:23:07;;;;;;;;;;;15.80;38.60;;;;;;8362919;28;20021;-48
2021/11/28 12:27:08;;;;;;;;;;;15.80;38.60;;;;;;8362104;28;19917;-47
2021/11/28 12:31:10;;;;;;;;;;;15.80;38.50;;;;;;8362420;28;20439;-48
2021/11/28 12:35:10;;;;;;;;;;;15.80;38.60;;;;;;8362474;28;20389;-49
2021/11/28 12:39:17;;;;;;;;;;;15.80;38.60;;;;;;8362098;28;19921;-48
2021/11/28 12:43:21;;;;;;;;;;;15.80;38.60;;;;;;8362694;28;20409;-47
2021/11/28 12:47:26;;;;;;;;;;;15.80;38.60;;;;;;8362446;28;19917;-48
2021/11/28 12:51:26;;;;;;;;;;;15.80;38.60;;;;;;8361737;28;19931;-48
2021/11/28 12:55:27;;;;;;;;;;;15.80;38.50;;;;;;8362117;28;20392;-47
2021/11/28 12:59:28;;;;;;;;;;;15.80;38.50;;;;;;8362230;28;20020;-48
2021/11/28 13:03:29;;;;;;;;;;;15.70;38.40;;;;;;8361619;28;19917;-49
2021/11/28 13:07:29;;;;;;;;;;;15.80;38.50;;;;;;8364612;28;19921;-48
2021/11/28 13:11:31;;;;;;;;;;;15.80;38.50;;;;;;8368094;28;19962;-49
2021/11/28 13:15:33;;;;;;;;;;;15.80;38.50;;;;;;8367554;28;19917;-48
2021/11/28 13:19:34;;;;;;;;;;;15.80;38.50;;;;;;8367892;28;20011;-48
2021/11/28 13:23:38;;;;;;;;;;;15.80;38.50;;;;;;8367636;28;20298;-47
2021/11/28 13:27:38;;;;;;;;;;;15.80;38.50;;;;;;8367137;28;19917;-49
2021/11/28 13:31:39;;;;;;;;;;;15.80;38.50;;;;;;8367566;28;19917;-47
2021/11/28 13:35:40;;;;;;;;;;;15.80;38.50;;;;;;8366902;28;20389;-46
2021/11/28 13:39:40;;;;;;;;;;;15.80;38.50;;;;;;8367593;28;19921;-48
2021/11/28 13:43:45;;;;;;;;;;;15.80;38.50;;;;;;8366935;28;20011;-48
2021/11/28 13:47:49;;;;;;;;;;;15.80;38.50;;;;;;8366299;28;19970;-49
2021/11/28 13:51:51;;;;;;;;;;;15.80;38.40;;;;;;8366563;28;20023;-48
2021/11/28 13:55:52;;;;;;;;;;;15.80;38.50;;;;;;8366549;28;19924;-48
2021/11/28 14:00:00;;;;;;;;;;;15.70;38.40;;;;;;8365636;28;19925;-47
2021/11/28 14:04:00;;;;;;;;;;;15.80;38.40;;;;;;8365902;28;20012;-46
2021/11/28 14:08:02;;;;;;;;;;;15.80;38.40;;;;;;8366268;28;19917;-47
2021/11/28 14:12:08;;;;;;;;;;;15.80;38.40;;;;;;8365899;28;19924;-48
2021/11/28 14:16:09;;;;;;;;;;;15.80;38.40;;;;;;8366202;28;19924;-48
2021/11/28 14:20:10;;;;;;;;;;;15.80;38.40;;;;;;8365859;28;19921;-47
2021/11/28 14:24:27;;;;;;;;;;;15.80;38.40;;;;;;8365675;28;20377;-47
2021/11/28 14:28:31;;;;;;;;;;;15.80;38.40;;;;;;8365838;28;19917;-48
2021/11/28 14:32:32;;;;;;;;;;;15.80;38.40;;;;;;8365646;28;19916;-48
2021/11/28 14:36:32;;;;;;;;;;;15.80;38.40;;;;;;8364890;28;19921;-48
2021/11/28 14:40:32;;;;;;;;;;;15.80;38.40;;;;;;8365457;28;19999;-48
2021/11/28 14:44:41;;;;;;;;;;;15.80;38.40;;;;;;8365435;28;19913;-48
2021/11/28 14:48:42;;;;;;;;;;;15.80;38.40;;;;;;8364794;28;20398;-49
2021/11/28 14:52:43;;;;;;;;;;;15.80;38.50;;;;;;8365048;28;19917;-49
2021/11/28 14:56:45;;;;;;;;;;;15.80;39.00;;;;;;8364448;28;19917;-48
2021/11/28 15:00:46;;;;;;;;;;;15.80;38.50;;;;;;8364476;28;20398;-49
2021/11/28 15:04:47;;;;;;;;;;;15.80;38.40;;;;;;8364699;28;19999;-48
2021/11/28 15:08:47;;;;;;;;;;;15.80;38.50;;;;;;8364108;28;19962;-48
2021/11/28 15:12:48;;;;;;;;;;;15.80;38.50;;;;;;8364289;28;19920;-49
2021/11/28 15:16:48;;;;;;;;;;;15.80;38.50;;;;;;8364142;28;19923;-48
2021/11/28 15:20:49;;;;;;;;;;;15.70;38.40;;;;;;8363516;28;19928;-48
2021/11/28 15:24:49;;;;;;;;;;;15.80;38.50;;;;;;8364511;28;19948;-49
2021/11/28 15:28:49;;;;;;;;;;;15.70;38.50;;;;;;8363676;28;19951;-49
2021/11/28 15:32:50;;;;;;;;;;;15.70;38.50;;;;;;8363343;28;19921;-48
2021/11/28 15:36:51;;;;;;;;;;;15.80;38.50;;;;;;8364008;28;19917;-49
2021/11/28 15:40:52;;;;;;;;;;;15.70;38.50;;;;;;8363715;28;19974;-48
2021/11/28 15:44:53;;;;;;;;;;;15.80;38.50;;;;;;8363340;28;19912;-48
2021/11/28 15:48:53;;;;;;;;;;;15.80;38.50;;;;;;8363365;28;20286;-52
2021/11/28 15:52:54;;;;;;;;;;;15.80;38.50;;;;;;8363602;28;19917;-51
2021/11/28 15:56:55;;;;;;;;;;;15.70;38.50;;;;;;8362869;28;19917;-48
2021/11/28 16:00:56;;;;;;;;;;;15.70;38.50;;;;;;8363129;28;19929;-48
2021/11/28 16:04:57;;;;;;;;;;;15.80;38.50;;;;;;8363488;28;20370;-47
2021/11/28 16:08:58;;;;;;;;;;;15.80;38.50;;;;;;8362707;28;19974;-51
2021/11/28 16:12:58;;;;;;;;;;;15.70;38.50;;;;;;8362999;28;19917;-48
2021/11/28 16:16:58;;;;;;;;;;;15.80;38.50;;;;;;8363039;28;19913;-48
2021/11/28 16:20:59;;;;;;;;;;;15.80;38.60;;;;;;8362341;28;20246;-49
2021/11/28 16:24:59;;;;;;;;;;;15.70;38.50;;;;;;8362887;28;20404;-48
2021/11/28 16:29:02;;;;;;;;;;;15.70;38.50;;;;;;8362642;28;19999;-48
2021/11/28 16:33:03;;;;;;;;;;;15.70;38.60;;;;;;8362338;28;19988;-48
2021/11/28 16:37:03;;;;;;;;;;;15.70;38.50;;;;;;8363015;28;20001;-48
2021/11/28 16:41:04;;;;;;;;;;;15.70;38.50;;;;;;8362942;28;19924;-48
2021/11/28 16:45:05;;;;;;;;;;;15.70;38.50;;;;;;8368525;28;19944;-48
2021/11/28 16:49:05;;;;;;;;;;;15.70;38.50;;;;;;8368735;28;19971;-48
2021/11/28 16:53:10;;;;;;;;;;;15.70;38.50;;;;;;8368627;28;20388;-48
2021/11/28 16:57:11;;;;;;;;;;;15.70;38.60;;;;;;8368243;28;19917;-48
2021/11/28 17:01:11;;;;;;;;;;;15.70;38.60;;;;;;8368367;28;19925;-49
2021/11/28 17:05:12;;;;;;;;;;;15.70;38.60;;;;;;8368573;28;20263;-49
2021/11/28 17:09:12;;;;;;;;;;;15.70;38.60;;;;;;8366135;28;20011;-48
2021/11/28 17:13:13;;;;;;;;;;;15.70;38.60;;;;;;8351283;28;20377;-50
2021/11/28 17:17:14;;;;;;;;;;;15.70;38.60;;;;;;8368237;28;19916;-50
2021/11/28 17:21:14;;;;;;;;;;;15.70;38.60;;;;;;8367563;28;19971;-50
2021/11/28 17:25:15;;;;;;;;;;;15.70;38.60;;;;;;8367806;28;20301;-50
2021/11/28 17:29:15;;;;;;;;;;;15.70;38.60;;;;;;8367747;28;20389;-48
2021/11/28 17:33:16;;;;;;;;;;;15.70;38.60;;;;;;8367101;28;19927;-48
2021/11/28 17:37:17;;;;;;;;;;;15.70;38.60;;;;;;8367777;28;19921;-50
2021/11/28 17:41:17;;;;;;;;;;;15.70;38.60;;;;;;8367365;28;19929;-49
2021/11/28 17:45:18;;;;;;;;;;;15.70;38.60;;;;;;8366858;28;19964;-49
2021/11/28 17:49:18;;;;;;;;;;;15.70;38.50;;;;;;8367001;28;19917;-49
2021/11/28 17:53:19;;;;;;;;;;;15.70;38.60;;;;;;8366547;28;19937;-48
2021/11/28 17:57:20;;;;;;;;;;;15.70;38.50;;;;;;8366325;28;19970;-49
2021/11/28 18:01:20;;;;;;;;;;;15.70;38.60;;;;;;8366598;28;19924;-48
2021/11/28 18:05:20;;;;;;;;;;;15.70;38.60;;;;;;8366393;28;19924;-50
2021/11/28 18:09:21;;;;;;;;;;;15.70;38.60;;;;;;8365760;28;19916;-48
2021/11/28 18:13:21;;;;;;;;;;;15.70;39.20;;;;;;8366205;28;19959;-47
2021/11/28 18:17:22;;;;;;;;;;;15.70;38.60;;;;;;8366273;28;19917;-49
2021/11/28 18:21:22;;;;;;;;;;;15.70;38.60;;;;;;8365629;28;19921;-48
2021/11/28 18:25:23;;;;;;;;;;;15.70;38.60;;;;;;8366167;28;19916;-48
2021/11/28 18:29:23;;;;;;;;;;;15.70;38.60;;;;;;8365681;28;19912;-48
2021/11/28 18:33:23;;;;;;;;;;;15.70;38.60;;;;;;8365443;28;20035;-48
2021/11/28 18:37:24;;;;;;;;;;;15.70;38.60;;;;;;8365481;28;19913;-48
2021/11/28 18:41:26;;;;;;;;;;;15.70;38.60;;;;;;8365528;28;19925;-49
2021/11/28 18:45:27;;;;;;;;;;;15.70;38.60;;;;;;8364676;28;19917;-49
2021/11/28 18:49:27;;;;;;;;;;;15.70;38.60;;;;;;8365014;28;20011;-48
2021/11/28 18:53:28;;;;;;;;;;;15.70;38.60;;;;;;8364892;28;19920;-48
2021/11/28 18:57:29;;;;;;;;;;;15.70;38.60;;;;;;8364369;28;19924;-50
2021/11/28 19:01:29;;;;;;;;;;;15.70;38.60;;;;;;8364647;28;19970;-49
2021/11/28 19:05:31;;;;;;;;;;;15.70;38.60;;;;;;8364018;28;19917;-49
2021/11/28 19:09:31;;;;;;;;;;;15.70;38.60;;;;;;8363785;28;19999;-49
2021/11/28 19:13:32;;;;;;;;;;;15.70;38.60;;;;;;8364376;28;20377;-51
2021/11/28 19:17:33;;;;;;;;;;;15.70;39.20;;;;;;8364361;28;19923;-49
2021/11/28 19:21:34;;;;;;;;;;;15.70;38.60;;;;;;8363974;28;20281;-49
2021/11/28 19:25:35;;;;;;;;;;;15.70;39.10;;;;;;8364191;28;19924;-49
2021/11/28 19:29:35;;;;;;;;;;;15.70;38.60;;;;;;8363901;28;20382;-50
2021/11/28 19:33:36;;;;;;;;;;;15.70;38.70;;;;;;8363424;28;19916;-51
2021/11/28 19:37:36;;;;;;;;;;;15.70;38.60;;;;;;8363818;28;20008;-51
2021/11/28 19:41:37;;;;;;;;;;;15.70;38.60;;;;;;8363921;28;19931;-48
2021/11/28 19:45:38;;;;;;;;;;;15.70;38.60;;;;;;8362992;28;20373;-48
2021/11/28 19:49:38;;;;;;;;;;;15.70;38.60;;;;;;8363508;28;19970;-49
2021/11/28 19:53:39;;;;;;;;;;;15.70;38.60;;;;;;8363391;28;19924;-48
2021/11/28 19:57:39;;;;;;;;;;;15.70;38.70;;;;;;8362864;28;19920;-50
2021/11/28 20:01:40;;;;;;;;;;;15.70;38.60;;;;;;8363897;28;20305;-52
2021/11/28 20:05:41;;;;;;;;;;;15.70;38.60;;;;;;8361987;28;20218;-49
2021/11/28 20:09:41;;;;;;;;;;;15.70;38.60;;;;;;8363594;28;19925;-49
2021/11/28 20:13:42;;;;;;;;;;;15.70;38.60;;;;;;8363048;28;19948;-49
2021/11/28 20:17:42;;;;;;;;;;;15.70;38.60;;;;;;8367758;28;19940;-49
2021/11/28 20:21:43;;;;;;;;;;;15.70;38.60;;;;;;8370072;28;19920;-48
2021/11/28 20:25:45;;;;;;;;;;;15.70;38.60;;;;;;8369778;28;19924;-49
2021/11/28 20:29:45;;;;;;;;;;;15.70;38.60;;;;;;8369059;28;19912;-48
2021/11/28 20:33:47;;;;;;;;;;;15.70;38.60;;;;;;8369517;28;19916;-48
2021/11/28 20:37:52;;;;;;;;;;;15.70;38.60;;;;;;8369106;28;19967;-48
2021/11/28 20:41:53;;;;;;;;;;;15.70;38.60;;;;;;8368675;28;19924;-49
2021/11/28 20:45:54;;;;;;;;;;;15.70;38.70;;;;;;8369330;28;19916;-49
2021/11/28 20:49:55;;;;;;;;;;;15.70;38.70;;;;;;8368794;28;19913;-49
2021/11/28 20:53:56;;;;;;;;;;;15.60;38.60;;;;;;8368197;28;19917;-49
2021/11/28 20:57:57;;;;;;;;;;;15.70;38.70;;;;;;8368633;28;20374;-49
2021/11/28 21:01:57;;;;;;;;;;;15.70;38.70;;;;;;8368850;28;19952;-49
2021/11/28 21:05:58;;;;;;;;;;;15.70;38.70;;;;;;8367898;28;20400;-49
2021/11/28 21:09:58;;;;;;;;;;;15.70;38.70;;;;;;8368344;28;20008;-49
2021/11/28 21:14:01;;;;;;;;;;;15.60;38.60;;;;;;8368314;28;19917;-49
2021/11/28 21:18:02;;;;;;;;;;;15.70;38.70;;;;;;8367485;28;19912;-51
2021/11/28 21:22:05;;;;;;;;;;;15.60;38.60;;;;;;8368143;28;19921;-48
2021/11/28 21:26:05;;;;;;;;;;;15.70;38.70;;;;;;8367698;28;19996;-49
2021/11/28 21:30:07;;;;;;;;;;;15.70;38.60;;;;;;8366363;28;20435;-48
2021/11/28 21:34:13;;;;;;;;;;;15.60;38.60;;;;;;8367606;28;19921;-49
2021/11/28 21:38:15;;;;;;;;;;;15.60;38.70;;;;;;8367524;28;20267;-49
2021/11/28 21:42:16;;;;;;;;;;;15.60;38.60;;;;;;8365768;28;19920;-49
2021/11/28 21:46:16;;;;;;;;;;;15.60;38.70;;;;;;8367170;28;19995;-48
2021/11/28 21:50:17;;;;;;;;;;;15.60;38.70;;;;;;8366842;28;19928;-50
2021/11/28 21:54:18;;;;;;;;;;;15.60;38.70;;;;;;8366437;28;19920;-49
2021/11/28 21:58:19;;;;;;;;;;;15.60;38.70;;;;;;8366621;28;19955;-49
2021/11/28 22:02:19;;;;;;;;;;;15.60;38.70;;;;;;8370571;28;19932;-48
2021/11/28 22:06:20;;;;;;;;;;;15.60;38.70;;;;;;8366061;28;20421;-48
2021/11/28 22:10:21;;;;;;;;;;;15.70;38.70;;;;;;8366366;28;19917;-48
2021/11/28 22:14:21;;;;;;;;;;;15.60;38.70;;;;;;8366109;28;19913;-49
2021/11/28 22:18:22;;;;;;;;;;;15.60;38.60;;;;;;8366107;28;20010;-49
2021/11/28 22:22:22;;;;;;;;;;;15.60;38.60;;;;;;8366141;28;19925;-50
2021/11/28 22:26:23;;;;;;;;;;;15.60;38.60;;;;;;8366012;28;19917;-49
2021/11/28 22:30:24;;;;;;;;;;;15.60;38.60;;;;;;8365273;28;19924;-49
2021/11/28 22:34:24;;;;;;;;;;;15.60;38.60;;;;;;8365834;28;19974;-48
2021/11/28 22:38:25;;;;;;;;;;;15.60;38.60;;;;;;8365226;28;19920;-48
2021/11/28 22:42:26;;;;;;;;;;;15.60;38.60;;;;;;8364420;28;19925;-49
2021/11/28 22:46:26;;;;;;;;;;;15.60;38.70;;;;;;8365149;28;19971;-49
2021/11/28 22:50:28;;;;;;;;;;;15.60;38.60;;;;;;8365131;28;19917;-48
2021/11/28 22:54:28;;;;;;;;;;;15.60;38.70;;;;;;8364625;28;20361;-49
2021/11/28 22:58:29;;;;;;;;;;;15.60;38.60;;;;;;8364970;28;19925;-48
2021/11/28 23:02:29;;;;;;;;;;;15.60;38.60;;;;;;8348199;28;19931;-49
2021/11/28 23:06:30;;;;;;;;;;;15.60;38.70;;;;;;8341924;28;19994;-49
2021/11/28 23:10:31;;;;;;;;;;;15.60;38.70;;;;;;8346741;28;19917;-49
2021/11/28 23:14:32;;;;;;;;;;;15.60;38.70;;;;;;8364351;28;19978;-49
2021/11/28 23:18:34;;;;;;;;;;;15.60;38.70;;;;;;8364251;28;20000;-48
2021/11/28 23:22:35;;;;;;;;;;;15.60;38.70;;;;;;8364053;28;19931;-49